Time;durP1;ratioP1;P1;durP2;ratioP2;P2;SDS_P1;SDS_P2;PMS_P1;PMS_P2;Temp;Humidity;BMP_temperature;BMP_pressure;BME280_temperature;BME280_humidity;BME280_pressure;Samples;Min_cycle;Max_cycle;Signal;HPM_P1;HPM_P2
2021/10/05 00:00:13;;;;;;;44.13;30.15;;;;;;;10.26;76.40;100050.41;255481;1104;116849;-68
2021/10/05 00:05:36;;;;;;;52.20;30.20;;;;;;;10.23;76.11;100041.02;254665;1103;116248;-69
2021/10/05 00:10:40;;;;;;;44.30;31.95;;;;;;;10.13;76.14;100032.70;254255;1104;116731;-69
2021/10/05 00:15:44;;;;;;;49.85;29.85;;;;;;;10.07;76.43;100033.63;257294;1104;116329;-69
2021/10/05 00:20:48;;;;;;;43.50;27.80;;;;;;;10.03;75.52;100033.25;254693;1104;116716;-69
2021/10/05 00:25:51;;;;;;;43.53;29.75;;;;;;;10.00;75.97;100036.36;257456;1103;117410;-70
2021/10/05 00:30:54;;;;;;;46.03;30.05;;;;;;;10.04;76.76;100032.22;257474;1104;115123;-69
2021/10/05 00:35:59;;;;;;;45.80;30.93;;;;;;;10.10;77.01;100036.63;257419;1104;115387;-69
2021/10/05 00:41:03;;;;;;;40.43;26.83;;;;;;;10.18;76.29;100032.03;255863;1104;115659;-69
2021/10/05 00:46:08;;;;;;;47.63;30.63;;;;;;;10.14;76.46;100023.67;256094;1104;114981;-69
2021/10/05 00:51:11;;;;;;;43.43;30.65;;;;;;;10.01;76.37;100024.67;254522;1104;115150;-68
2021/10/05 00:56:14;;;;;;;42.67;30.03;;;;;;;10.04;76.21;100024.23;254477;1103;118257;-69
2021/10/05 01:01:17;;;;;;;39.30;27.20;;;;;;;10.01;76.29;100030.00;255324;1104;115688;-68
2021/10/05 01:06:21;;;;;;;45.55;30.95;;;;;;;10.05;76.62;100023.19;254258;1104;115092;-67
2021/10/05 01:11:24;;;;;;;34.88;28.08;;;;;;;10.02;76.44;100020.97;254134;1104;115316;-67
2021/10/05 01:16:27;;;;;;;40.90;27.00;;;;;;;9.89;76.52;100015.80;254657;1104;115739;-68
2021/10/05 01:21:31;;;;;;;43.63;28.77;;;;;;;9.76;76.62;100007.98;254317;1104;115933;-68
2021/10/05 01:26:34;;;;;;;42.15;30.90;;;;;;;9.70;77.01;100001.69;254284;1104;115114;-67
2021/10/05 01:31:41;;;;;;;38.20;28.43;;;;;;;9.76;77.72;100006.13;254218;1104;115742;-67
2021/10/05 01:36:46;;;;;;;40.98;28.00;;;;;;;9.85;76.99;100001.30;254246;1104;115194;-68
2021/10/05 01:41:56;;;;;;;46.28;29.98;;;;;;;9.86;76.68;99988.80;254276;1104;115380;-68
2021/10/05 01:47:01;;;;;;;35.15;24.95;;;;;;;9.68;76.14;99992.30;255276;1104;115278;-67
2021/10/05 01:52:07;;;;;;;31.55;24.33;;;;;;;9.49;76.79;99980.83;255297;1104;115044;-67
2021/10/05 01:57:10;;;;;;;37.33;26.73;;;;;;;9.44;76.83;99970.06;255077;1104;115368;-68
2021/10/05 02:02:14;;;;;;;43.50;27.88;;;;;;;9.48;76.84;99970.44;255305;1104;114517;-68
2021/10/05 02:07:17;;;;;;;43.25;28.83;;;;;;;9.51;77.66;99973.44;254272;1104;114606;-67
2021/10/05 02:12:20;;;;;;;39.03;26.90;;;;;;;9.52;78.16;99967.08;254201;1104;115714;-68
2021/10/05 02:17:22;;;;;;;41.85;27.40;;;;;;;9.65;77.90;99977.58;255873;1098;115233;-68
2021/10/05 02:22:27;;;;;;;43.43;27.53;;;;;;;9.70;77.58;99977.73;256424;1104;115071;-68
2021/10/05 02:27:30;;;;;;;46.85;32.30;;;;;;;9.77;77.84;99967.83;257351;1104;114568;-68
2021/10/05 02:32:34;;;;;;;34.33;25.30;;;;;;;9.87;77.43;99963.80;256983;1104;114670;-68
2021/10/05 02:37:37;;;;;;;38.73;30.00;;;;;;;9.85;77.35;99964.02;255296;1103;115235;-68
2021/10/05 02:42:40;;;;;;;35.75;25.43;;;;;;;9.88;77.53;99960.09;255930;1104;115254;-68
2021/10/05 02:47:43;;;;;;;36.40;28.75;;;;;;;9.88;78.17;99949.45;257331;1104;115119;-68
2021/10/05 02:52:46;;;;;;;35.18;26.63;;;;;;;9.94;77.33;99944.05;256506;1097;114642;-68
2021/10/05 02:57:48;;;;;;;41.43;27.83;;;;;;;9.90;77.51;99940.20;254244;1104;114663;-68
2021/10/05 03:02:50;;;;;;;40.23;29.88;;;;;;;9.82;77.90;99942.36;254030;1104;115431;-68
2021/10/05 03:07:54;;;;;;;35.40;27.05;;;;;;;9.87;77.57;99950.48;255282;1104;115432;-69
2021/10/05 03:12:57;;;;;;;38.80;26.60;;;;;;;9.96;78.05;99941.16;254298;1104;115417;-68
2021/10/05 03:18:00;;;;;;;45.17;29.80;;;;;;;9.97;78.34;99946.26;254885;1104;115432;-67
2021/10/05 03:23:03;;;;;;;39.00;27.55;;;;;;;10.09;78.69;99947.09;255415;1103;120738;-67
2021/10/05 03:28:08;;;;;;;33.95;25.08;;;;;;;10.18;78.45;99946.78;254539;1104;116052;-67
2021/10/05 03:33:11;;;;;;;49.05;25.43;;;;;;;10.27;78.88;99948.95;254489;1104;115873;-67
2021/10/05 03:38:15;;;;;;;33.98;26.63;;;;;;;10.40;79.40;99950.58;255811;1104;115792;-68
2021/10/05 03:43:19;;;;;;;37.18;23.45;;;;;;;10.51;79.28;99941.81;254965;1104;116037;-69
2021/10/05 03:48:22;;;;;;;35.88;24.50;;;;;;;10.63;79.66;99944.50;254380;1104;116107;-67
2021/10/05 03:53:26;;;;;;;32.33;26.63;;;;;;;10.64;79.74;99935.47;254822;1104;116487;-67
2021/10/05 03:58:30;;;;;;;32.40;24.10;;;;;;;10.72;79.66;99925.25;254289;1103;116599;-67
2021/10/05 04:03:33;;;;;;;29.05;21.50;;;;;;;10.83;80.04;99920.98;254346;1104;115414;-67
2021/10/05 04:08:38;;;;;;;35.23;24.68;;;;;;;10.86;80.01;99923.19;255397;1104;115509;-68
2021/10/05 04:13:41;;;;;;;32.15;24.68;;;;;;;10.91;80.07;99925.97;255040;1104;115323;-68
2021/10/05 04:18:45;;;;;;;30.57;21.83;;;;;;;10.98;80.32;99918.67;254560;1103;114761;-67
2021/10/05 04:23:48;;;;;;;36.83;25.53;;;;;;;11.04;80.45;99915.05;256407;1103;115301;-68
2021/10/05 04:28:52;;;;;;;40.38;24.60;;;;;;;11.07;80.20;99911.11;256390;1102;115932;-67
2021/10/05 04:33:57;;;;;;;27.15;20.50;;;;;;;11.13;79.83;99910.17;257376;1102;115930;-69
2021/10/05 04:39:00;;;;;;;35.48;24.03;;;;;;;11.20;79.98;99910.06;257437;1104;115437;-69
2021/10/05 04:44:04;;;;;;;27.07;20.77;;;;;;;11.19;79.70;99903.10;257443;1102;114966;-69
2021/10/05 04:49:08;;;;;;;32.47;21.77;;;;;;;11.23;79.59;99905.06;256371;1101;116227;-67
2021/10/05 04:54:11;;;;;;;31.70;21.55;;;;;;;11.30;79.74;99899.61;255386;1097;115510;-67
2021/10/05 04:59:18;;;;;;;27.63;21.73;;;;;;;11.32;79.40;99903.64;256091;1104;115323;-68
2021/10/05 05:04:22;;;;;;;27.13;21.23;;;;;;;11.39;79.75;99896.32;254626;1096;115288;-67
2021/10/05 05:09:27;;;;;;;29.80;22.50;;;;;;;11.42;79.47;99901.19;255332;1099;114824;-68
2021/10/05 05:14:30;;;;;;;24.33;20.65;;;;;;;11.43;79.63;99902.81;255776;1104;115251;-68
2021/10/05 05:19:33;;;;;;;33.68;20.73;;;;;;;11.44;79.47;99900.95;254392;1104;115583;-67
2021/10/05 05:24:39;;;;;;;28.33;20.68;;;;;;;11.52;79.59;99915.80;254328;1104;115542;-67
2021/10/05 05:29:42;;;;;;;31.38;21.73;;;;;;;11.58;79.63;99899.65;254138;1104;115363;-67
2021/10/05 05:34:47;;;;;;;26.58;18.70;;;;;;;11.67;79.49;99900.88;254523;1104;114894;-68
2021/10/05 05:39:51;;;;;;;26.90;19.95;;;;;;;11.73;79.34;99904.46;254802;1097;115360;-68
2021/10/05 05:44:55;;;;;;;28.10;21.55;;;;;;;11.86;79.91;99906.08;254278;1104;115701;-68
2021/10/05 05:50:00;;;;;;;27.93;20.18;;;;;;;12.01;79.40;99911.69;254990;1104;115345;-68
2021/10/05 05:55:04;;;;;;;29.00;21.95;;;;;;;12.13;79.81;99904.44;254992;1099;115755;-68
2021/10/05 06:00:09;;;;;;;24.75;21.05;;;;;;;12.23;79.54;99907.27;254338;1096;115356;-68
2021/10/05 06:05:14;;;;;;;27.97;21.10;;;;;;;12.32;79.21;99908.50;254305;1104;115370;-68
2021/10/05 06:10:17;;;;;;;32.93;20.85;;;;;;;12.40;79.37;99899.27;255977;1104;114791;-70
2021/10/05 06:15:23;;;;;;;29.25;20.50;;;;;;;12.49;79.18;99887.14;256260;1104;115347;-68
2021/10/05 06:20:28;;;;;;;27.38;19.78;;;;;;;12.69;79.23;99889.30;255973;1103;116139;-70
2021/10/05 06:25:32;;;;;;;22.35;18.53;;;;;;;12.88;79.44;99885.30;257019;1104;115253;-70
2021/10/05 06:30:37;;;;;;;22.63;17.98;;;;;;;13.04;79.44;99876.44;255486;1104;115177;-70
2021/10/05 06:35:41;;;;;;;27.85;19.80;;;;;;;13.24;78.92;99872.42;256801;1102;116104;-71
2021/10/05 06:40:45;;;;;;;22.30;19.78;;;;;;;13.67;78.86;99856.34;257513;1104;116617;-71
2021/10/05 06:45:49;;;;;;;26.78;17.63;;;;;;;13.93;78.62;99857.41;256936;1097;115969;-70
2021/10/05 06:50:53;;;;;;;26.13;19.40;;;;;;;14.22;78.00;99862.48;254316;1099;116029;-69
2021/10/05 06:55:57;;;;;;;27.80;20.85;;;;;;;14.52;77.89;99853.89;256081;1104;115990;-68
2021/10/05 07:01:00;;;;;;;27.18;19.90;;;;;;;14.63;77.28;99848.35;255361;1104;115989;-69
2021/10/05 07:06:04;;;;;;;26.73;20.33;;;;;;;14.70;76.96;99838.18;254251;1104;115500;-69
2021/10/05 07:11:07;;;;;;;29.85;20.05;;;;;;;14.80;76.97;99840.13;254165;1104;115944;-68
2021/10/05 07:16:11;;;;;;;28.15;19.23;;;;;;;14.86;76.75;99833.73;255663;1104;115118;-68
2021/10/05 07:21:16;;;;;;;25.00;19.25;;;;;;;14.96;77.29;99825.73;254136;1103;116178;-67
2021/10/05 07:26:21;;;;;;;30.40;20.28;;;;;;;15.09;76.79;99825.24;255211;1104;115784;-66
2021/10/05 07:31:26;;;;;;;33.08;20.65;;;;;;;15.19;76.94;99829.05;254056;1104;116204;-66
2021/10/05 07:36:30;;;;;;;26.20;17.40;;;;;;;15.30;76.56;99819.94;263394;1085;115318;-66
2021/10/05 07:41:34;;;;;;;23.97;15.33;;;;;;;15.45;76.32;99820.00;254993;1104;115412;-68
2021/10/05 07:46:38;;;;;;;21.03;17.23;;;;;;;15.54;76.22;99813.05;254696;1104;115107;-70
2021/10/05 07:51:42;;;;;;;21.43;15.50;;;;;;;15.67;75.93;99801.00;253914;1104;115716;-70
2021/10/05 07:56:46;;;;;;;24.70;14.73;;;;;;;15.86;76.15;99799.42;255454;1104;115549;-69
2021/10/05 08:01:51;;;;;;;21.55;16.55;;;;;;;16.05;75.73;99797.00;255335;1104;115079;-68
2021/10/05 08:06:55;;;;;;;19.68;13.45;;;;;;;16.29;75.73;99797.25;255759;1104;115340;-67
2021/10/05 08:11:59;;;;;;;16.10;14.10;;;;;;;16.49;75.48;99795.36;253858;1104;115019;-68
2021/10/05 08:17:04;;;;;;;21.53;14.90;;;;;;;16.67;75.11;99795.88;253663;1104;115892;-69
2021/10/05 08:22:08;;;;;;;;;;;;;;;16.86;75.15;99798.78;258912;1104;114863;-67
2021/10/05 08:27:12;;;;;;;19.38;14.28;;;;;;;17.06;74.65;99786.06;258124;1104;101510;-69
2021/10/05 08:35:38;;;;;;;21.70;15.50;;;;;;;17.35;74.13;99776.55;231449;1205;635593;-67
2021/10/05 08:40:43;;;;;;;17.10;11.00;;;;;;;17.57;73.82;99778.55;226598;1196;139781;-66
2021/10/05 08:45:49;;;;;;;16.70;14.90;;;;;;;17.79;73.29;99771.80;227471;1196;140424;-68
2021/10/05 08:50:55;;;;;;;15.20;13.60;;;;;;;18.03;73.04;99771.66;228543;1193;139773;-66
2021/10/05 08:56:00;;;;;;;19.00;15.60;;;;;;;18.20;72.77;99770.60;229213;1193;138284;-69
2021/10/05 09:01:13;;;;;;;14.70;11.70;;;;;;;18.54;72.54;99761.70;228317;1193;139763;-69
2021/10/05 09:06:35;;;;;;;18.20;14.00;;;;;;;18.82;71.91;99758.27;227960;1193;139992;-69
2021/10/05 09:11:46;;;;;;;14.10;11.30;;;;;;;19.17;71.71;99753.23;228177;1193;138388;-69
2021/10/05 09:16:58;;;;;;;16.70;13.70;;;;;;;19.51;71.27;99751.29;229042;1193;138572;-67
2021/10/05 09:22:04;;;;;;;12.50;10.70;;;;;;;19.81;70.67;99747.32;228289;1192;138859;-68
2021/10/05 09:27:09;;;;;;;18.40;12.00;;;;;;;20.11;70.13;99739.15;229124;1193;138363;-67
2021/10/05 09:32:16;;;;;;;19.50;11.30;;;;;;;20.38;69.51;99732.39;228823;1192;138365;-68
2021/10/05 09:37:33;;;;;;;13.90;10.90;;;;;;;20.65;68.89;99730.70;228123;1193;138919;-69
2021/10/05 09:42:50;;;;;;;14.50;11.50;;;;;;;20.84;68.09;99725.95;228621;1193;141162;-68
2021/10/05 09:47:56;;;;;;;11.20;8.80;;;;;;;20.99;67.60;99720.89;229161;1193;140250;-68
2021/10/05 09:53:04;;;;;;;11.10;10.00;;;;;;;21.17;66.85;99723.20;228840;1193;138827;-67
2021/10/05 09:58:10;;;;;;;10.20;8.60;;;;;;;21.35;66.29;99720.94;228059;1193;138952;-67
2021/10/05 10:03:17;;;;;;;10.40;9.30;;;;;;;21.60;66.26;99718.94;228875;1193;138816;-68
2021/10/05 10:08:24;;;;;;;14.40;10.00;;;;;;;21.84;65.65;99709.55;229410;1193;138395;-67
2021/10/05 10:13:30;;;;;;;9.90;8.80;;;;;;;22.07;64.76;99703.30;229469;1193;140926;-68
2021/10/05 10:18:34;;;;;;;9.80;8.00;;;;;;;22.22;64.45;99691.50;230738;1193;138553;-68
2021/10/05 10:23:39;;;;;;;10.30;8.50;;;;;;;22.43;63.97;99693.90;229617;1193;139253;-68
2021/10/05 10:28:46;;;;;;;10.80;9.20;;;;;;;22.51;62.99;99690.80;228811;1193;139559;-68
2021/10/05 10:33:53;;;;;;;10.40;7.20;;;;;;;22.65;62.64;99685.27;230056;1192;139497;-67
2021/10/05 10:39:07;;;;;;;13.10;8.70;;;;;;;22.83;62.32;99684.42;229485;1192;138317;-67
2021/10/05 10:44:13;;;;;;;11.30;7.60;;;;;;;23.02;62.07;99681.06;229010;1192;140678;-68
2021/10/05 10:49:20;;;;;;;10.30;8.80;;;;;;;23.18;61.69;99673.25;229057;1193;139014;-68
2021/10/05 10:54:27;;;;;;;;;;;;;;;23.38;61.35;99666.92;230247;1192;139535;-68
2021/10/05 10:59:33;;;;;;;9.90;8.70;;;;;;;23.54;60.56;99667.04;229691;1191;124943;-67
2021/10/05 11:04:38;;;;;;;10.10;7.40;;;;;;;23.62;59.53;99655.08;228931;1191;138951;-68
2021/10/05 11:09:43;;;;;;;8.50;6.80;;;;;;;23.63;58.98;99650.95;229529;1192;138011;-68
2021/10/05 11:14:51;;;;;;;9.50;7.40;;;;;;;23.73;58.98;99647.58;229271;1192;138424;-68
2021/10/05 11:20:08;;;;;;;8.20;7.00;;;;;;;23.88;58.52;99642.75;229328;1192;138923;-68
2021/10/05 11:25:18;;;;;;;8.50;7.70;;;;;;;24.07;58.21;99631.10;229330;1192;139846;-69
2021/10/05 11:30:23;;;;;;;8.50;7.70;;;;;;;24.08;57.28;99617.45;229736;1191;138398;-69
2021/10/05 11:35:39;;;;;;;7.90;6.80;;;;;;;24.06;56.68;99614.55;229453;1192;138971;-68
2021/10/05 11:41:01;;;;;;;11.40;8.20;;;;;;;24.10;56.78;99605.95;230197;1191;139795;-68
2021/10/05 11:46:14;;;;;;;11.40;7.90;;;;;;;24.12;56.02;99599.79;229124;1192;150351;-68
2021/10/05 11:51:22;;;;;;;12.40;7.20;;;;;;;24.13;55.81;99598.34;229205;1192;138977;-69
2021/10/05 11:56:28;;;;;;;8.70;7.50;;;;;;;24.20;55.78;99597.70;229442;1192;138341;-67
2021/10/05 12:01:33;;;;;;;8.70;7.20;;;;;;;24.28;55.47;99596.92;229427;1193;139817;-67
2021/10/05 12:06:42;;;;;;;10.80;6.70;;;;;;;24.32;55.12;99586.76;231139;1191;140120;-68
2021/10/05 12:11:48;;;;;;;11.50;7.50;;;;;;;24.37;54.77;99579.04;231205;1191;138292;-66
2021/10/05 12:16:59;;;;;;;13.00;7.50;;;;;;;24.40;54.41;99578.15;231524;1191;140349;-68
2021/10/05 12:22:09;;;;;;;8.80;7.40;;;;;;;24.37;53.89;99575.66;230829;1190;139422;-68
2021/10/05 12:27:19;;;;;;;8.50;7.50;;;;;;;24.36;53.85;99573.98;229742;1190;139487;-69
2021/10/05 12:32:44;;;;;;;14.80;8.70;;;;;;;24.34;53.91;99568.79;230094;1192;141052;-67
2021/10/05 12:38:21;;;;;;;12.80;7.80;;;;;;;24.48;54.13;99569.46;229150;1191;139580;-68
2021/10/05 12:43:36;;;;;;;8.90;7.50;;;;;;;24.56;53.94;99563.90;229827;1191;140344;-68
2021/10/05 12:48:50;;;;;;;9.50;7.70;;;;;;;24.51;53.44;99562.75;230106;1192;139831;-67
2021/10/05 12:54:00;;;;;;;7.40;6.80;;;;;;;24.41;53.26;99561.44;229905;1191;141062;-69
2021/10/05 12:59:06;;;;;;;9.60;7.90;;;;;;;24.28;53.07;99553.59;228923;1192;138382;-69
2021/10/05 13:04:14;;;;;;;11.50;8.10;;;;;;;24.21;53.13;99552.27;229306;1190;139146;-68
2021/10/05 13:09:21;;;;;;;8.40;7.20;;;;;;;24.24;53.32;99551.23;229376;1192;139505;-68
2021/10/05 13:14:27;;;;;;;;;;;;;;;24.21;53.10;99554.86;229126;1191;138875;-68
2021/10/05 13:19:32;;;;;;;12.40;7.40;;;;;;;24.19;53.37;99549.88;229353;1192;126688;-68
2021/10/05 13:24:41;;;;;;;9.00;7.20;;;;;;;24.16;52.80;99541.50;228688;1192;141285;-70
2021/10/05 13:29:44;;;;;;;;;;;;;;;24.10;52.74;99533.89;228726;1192;138349;-70
2021/10/05 13:34:48;;;;;;;8.40;7.20;;;;;;;23.99;52.72;99541.91;229938;1191;124691;-69
2021/10/05 13:39:53;;;;;;;11.30;7.10;;;;;;;23.93;52.43;99541.75;228293;1192;139516;-69
2021/10/05 13:44:57;;;;;;;12.50;8.00;;;;;;;23.79;52.21;99531.09;228316;1192;138412;-69
2021/10/05 13:50:03;;;;;;;10.90;6.80;;;;;;;23.60;52.38;99521.05;228645;1191;139235;-69
2021/10/05 13:55:09;;;;;;;7.10;6.30;;;;;;;23.38;52.20;99520.95;228507;1193;138442;-69
2021/10/05 14:00:14;;;;;;;;;;;;;;;23.13;52.47;99514.16;229089;1193;138461;-70
2021/10/05 14:05:20;;;;;;;9.60;7.90;;;;;;;23.01;52.77;99514.16;230819;1192;124884;-68
2021/10/05 14:10:30;;;;;;;7.30;6.60;;;;;;;22.88;52.97;99515.32;229551;1192;138385;-69
2021/10/05 14:15:34;;;;;;;7.10;6.50;;;;;;;22.75;52.78;99515.78;229743;1192;139205;-69
2021/10/05 14:20:39;;;;;;;16.30;5.80;;;;;;;22.66;53.00;99518.27;230999;1192;139369;-69
2021/10/05 14:25:45;;;;;;;9.70;8.60;;;;;;;22.56;53.04;99516.97;231044;1192;139629;-69
2021/10/05 14:30:51;;;;;;;11.30;7.30;;;;;;;22.44;53.23;99510.75;230738;1192;139650;-69
2021/10/05 14:35:55;;;;;;;12.00;8.50;;;;;;;22.32;53.45;99509.65;228692;1192;138985;-69
2021/10/05 14:40:59;;;;;;;12.20;7.60;;;;;;;22.17;53.70;99501.96;229251;1192;138629;-71
2021/10/05 14:46:04;;;;;;;8.60;7.30;;;;;;;22.04;53.67;99499.09;228968;1192;139372;-68
2021/10/05 14:51:09;;;;;;;9.70;7.50;;;;;;;21.89;54.02;99492.71;229273;1192;138183;-69
2021/10/05 14:56:13;;;;;;;9.00;8.10;;;;;;;21.75;54.13;99491.58;230027;1192;138320;-70
2021/10/05 15:01:18;;;;;;;11.10;8.30;;;;;;;21.64;54.69;99490.88;228725;1193;149142;-69
2021/10/05 15:06:23;;;;;;;11.70;7.60;;;;;;;21.50;54.71;99490.82;228629;1184;139195;-70
2021/10/05 15:11:27;;;;;;;17.90;7.60;;;;;;;21.35;54.97;99482.02;229293;1192;138687;-69
2021/10/05 15:16:31;;;;;;;8.80;7.00;;;;;;;21.19;55.19;99481.68;228539;1192;139533;-69
2021/10/05 15:21:35;;;;;;;10.30;8.50;;;;;;;21.07;55.24;99483.02;228980;1192;139132;-69
2021/10/05 15:26:40;;;;;;;8.50;7.70;;;;;;;20.94;55.45;99485.27;229153;1192;138661;-68
2021/10/05 15:31:46;;;;;;;10.30;8.00;;;;;;;20.75;55.47;99482.52;228904;1192;138545;-69
2021/10/05 15:36:52;;;;;;;10.20;7.30;;;;;;;20.61;55.60;99479.55;229133;1192;138525;-70
2021/10/05 15:41:57;;;;;;;8.60;7.70;;;;;;;20.49;55.74;99481.14;229230;1192;139964;-70
2021/10/05 15:47:01;;;;;;;9.50;8.70;;;;;;;20.35;55.89;99483.50;229319;1191;139390;-70
2021/10/05 15:52:15;;;;;;;11.10;9.30;;;;;;;20.18;56.07;99482.50;228837;1192;138672;-70
2021/10/05 15:57:20;;;;;;;13.30;9.80;;;;;;;20.04;56.34;99482.80;229525;1191;138570;-69
2021/10/05 16:02:26;;;;;;;11.10;9.30;;;;;;;19.92;56.56;99483.83;228710;1193;140089;-69
2021/10/05 16:07:30;;;;;;;11.70;8.90;;;;;;;19.81;56.66;99479.14;229229;1192;138514;-69
2021/10/05 16:12:34;;;;;;;10.70;9.40;;;;;;;19.68;56.98;99479.96;228410;1192;139132;-69
2021/10/05 16:17:39;;;;;;;12.30;9.80;;;;;;;19.57;57.01;99481.27;228270;1192;139705;-69
2021/10/05 16:22:43;;;;;;;14.90;9.30;;;;;;;19.47;57.17;99481.17;229237;1191;138522;-70
2021/10/05 16:27:49;;;;;;;9.40;8.60;;;;;;;19.38;57.45;99486.25;230345;1192;139641;-69
2021/10/05 16:32:57;;;;;;;11.90;9.30;;;;;;;19.28;57.57;99493.52;228640;1193;138612;-68
2021/10/05 16:38:03;;;;;;;9.80;8.90;;;;;;;19.19;57.56;99491.95;229540;1192;138950;-69
2021/10/05 16:43:08;;;;;;;10.90;9.40;;;;;;;19.10;57.59;99493.61;229237;1192;140379;-68
2021/10/05 16:48:12;;;;;;;17.40;9.10;;;;;;;19.04;57.64;99491.98;228813;1192;139578;-69
2021/10/05 16:53:16;;;;;;;13.20;8.90;;;;;;;18.95;57.67;99488.84;228770;1193;140743;-68
2021/10/05 16:58:21;;;;;;;10.70;9.10;;;;;;;18.85;57.71;99491.30;228723;1193;139283;-68
2021/10/05 17:03:31;;;;;;;12.80;9.00;;;;;;;18.75;57.72;99494.19;228955;1192;138661;-68
2021/10/05 17:08:36;;;;;;;;;;;;;;;18.66;57.71;99498.44;229125;1192;138636;-69
2021/10/05 17:13:39;;;;;;;10.10;8.80;;;;;;;18.53;57.97;99499.91;229491;1192;126138;-69
2021/10/05 17:18:44;;;;;;;10.70;8.10;;;;;;;18.46;57.91;99497.89;229003;1184;138692;-69
2021/10/05 17:23:51;;;;;;;9.40;7.90;;;;;;;18.37;57.88;99496.34;228991;1193;141261;-69
2021/10/05 17:29:00;;;;;;;10.60;7.80;;;;;;;18.26;57.89;99501.48;229431;1191;138557;-68
2021/10/05 17:34:06;;;;;;;11.40;7.50;;;;;;;18.19;57.88;99508.98;230012;1191;138789;-69
2021/10/05 17:39:12;;;;;;;8.70;7.70;;;;;;;18.14;57.91;99513.34;229027;1193;139137;-68
2021/10/05 17:44:17;;;;;;;12.70;7.90;;;;;;;18.08;57.78;99516.65;229553;1192;138819;-69
2021/10/05 17:49:23;;;;;;;13.00;6.70;;;;;;;18.03;57.80;99517.31;228902;1193;141915;-69
2021/10/05 17:54:29;;;;;;;11.10;8.80;;;;;;;17.97;57.75;99521.66;229454;1193;139269;-70
2021/10/05 17:59:35;;;;;;;8.40;7.50;;;;;;;17.90;57.80;99523.79;230250;1192;139935;-67
2021/10/05 18:04:40;;;;;;;16.30;8.00;;;;;;;17.84;57.69;99531.89;228839;1193;139745;-69
2021/10/05 18:09:44;;;;;;;6.80;5.70;;;;;;;17.79;57.70;99536.63;231132;1192;139725;-69
2021/10/05 18:14:49;;;;;;;8.00;6.10;;;;;;;17.72;57.80;99538.70;230859;1192;138569;-69
2021/10/05 18:19:53;;;;;;;10.70;6.90;;;;;;;17.67;57.86;99540.06;229169;1192;138785;-69
2021/10/05 18:24:58;;;;;;;9.20;7.30;;;;;;;17.63;57.95;99539.50;229921;1192;139369;-69
2021/10/05 18:30:04;;;;;;;16.20;7.80;;;;;;;17.62;58.09;99546.71;230549;1191;138735;-69
2021/10/05 18:35:10;;;;;;;8.20;6.90;;;;;;;17.64;58.00;99548.00;229668;1192;140112;-69
2021/10/05 18:40:20;;;;;;;9.90;7.20;;;;;;;17.66;58.10;99547.19;228607;1192;139619;-69
2021/10/05 18:45:27;;;;;;;12.20;7.50;;;;;;;17.66;57.99;99542.22;229081;1193;138811;-68
2021/10/05 18:50:34;;;;;;;8.90;6.80;;;;;;;17.65;58.09;99548.98;229369;1192;138977;-69
2021/10/05 18:55:39;;;;;;;9.10;7.10;;;;;;;17.65;57.95;99547.36;229135;1192;139143;-69
2021/10/05 19:00:44;;;;;;;7.40;6.70;;;;;;;17.64;57.87;99553.66;228885;1192;139407;-68
2021/10/05 19:05:50;;;;;;;11.00;7.40;;;;;;;17.63;57.94;99558.36;229495;1192;138636;-69
2021/10/05 19:10:56;;;;;;;9.10;6.60;;;;;;;17.61;58.02;99559.12;229620;1192;139296;-68
2021/10/05 19:16:01;;;;;;;11.40;7.90;;;;;;;17.59;57.94;99566.30;229102;1191;138470;-67
2021/10/05 19:21:06;;;;;;;15.90;8.50;;;;;;;17.56;58.04;99574.52;229023;1192;140035;-69
2021/10/05 19:26:10;;;;;;;8.20;7.30;;;;;;;17.53;58.02;99574.18;229445;1192;138889;-69
2021/10/05 19:31:14;;;;;;;12.00;6.90;;;;;;;17.48;58.09;99579.55;230059;1192;139772;-69
2021/10/05 19:36:21;;;;;;;10.30;5.30;;;;;;;17.46;58.15;99582.43;229106;1192;140471;-68
2021/10/05 19:41:26;;;;;;;9.40;6.80;;;;;;;17.45;58.16;99584.88;228947;1192;140752;-68
2021/10/05 19:46:34;;;;;;;8.30;7.10;;;;;;;17.43;58.19;99587.22;229699;1192;139051;-69
2021/10/05 19:51:42;;;;;;;10.60;6.90;;;;;;;17.41;58.21;99584.98;229674;1192;139410;-69
2021/10/05 19:56:47;;;;;;;16.60;7.00;;;;;;;17.38;58.24;99584.79;229232;1192;139642;-69
2021/10/05 20:01:52;;;;;;;16.80;7.30;;;;;;;17.34;58.30;99582.66;229493;1188;138863;-69
2021/10/05 20:06:57;;;;;;;16.50;6.90;;;;;;;17.29;58.39;99585.02;229790;1192;140124;-68
2021/10/05 20:12:02;;;;;;;11.40;7.80;;;;;;;17.26;58.59;99583.48;229316;1192;138669;-69
2021/10/05 20:17:06;;;;;;;28.60;8.40;;;;;;;17.22;58.50;99588.68;230264;1192;138986;-68
2021/10/05 20:22:11;;;;;;;8.20;7.10;;;;;;;17.18;58.67;99591.30;228984;1192;138849;-69
2021/10/05 20:27:15;;;;;;;8.20;7.30;;;;;;;17.14;58.79;99594.73;229006;1192;138919;-69
2021/10/05 20:32:19;;;;;;;9.40;6.20;;;;;;;17.10;58.85;99591.27;229490;1192;139272;-69
2021/10/05 20:37:26;;;;;;;10.40;7.30;;;;;;;17.05;58.80;99588.71;230085;1191;139087;-70
2021/10/05 20:42:32;;;;;;;9.70;7.90;;;;;;;17.01;59.08;99590.14;229515;1192;138521;-69
2021/10/05 20:47:37;;;;;;;10.70;8.20;;;;;;;16.96;59.14;99588.98;229156;1192;139522;-70
2021/10/05 20:52:41;;;;;;;11.20;7.20;;;;;;;16.92;59.27;99598.48;229556;1192;139081;-69
2021/10/05 20:57:45;;;;;;;9.20;7.10;;;;;;;16.88;59.30;99599.16;230085;1193;139207;-67
2021/10/05 21:02:49;;;;;;;8.60;7.70;;;;;;;16.82;59.51;99605.27;229074;1193;139133;-67
2021/10/05 21:07:55;;;;;;;9.60;8.40;;;;;;;16.77;59.65;99599.08;229069;1192;150779;-68
2021/10/05 21:13:00;;;;;;;13.50;7.80;;;;;;;16.65;59.69;99593.86;229426;1192;138461;-68
2021/10/05 21:18:06;;;;;;;11.40;8.40;;;;;;;16.53;59.82;99593.70;229058;1192;140146;-68
2021/10/05 21:23:10;;;;;;;9.70;8.00;;;;;;;16.42;60.00;99601.12;229676;1192;139961;-68
2021/10/05 21:28:14;;;;;;;17.70;8.50;;;;;;;16.34;60.18;99603.19;228687;1192;139100;-69
2021/10/05 21:33:19;;;;;;;8.60;7.70;;;;;;;16.30;60.32;99607.95;229148;1193;139239;-68
2021/10/05 21:38:24;;;;;;;11.60;8.10;;;;;;;16.25;60.64;99605.16;228627;1193;139167;-69
2021/10/05 21:43:28;;;;;;;8.70;7.70;;;;;;;16.20;60.73;99597.77;229206;1192;140198;-67
2021/10/05 21:48:33;;;;;;;12.60;7.90;;;;;;;16.18;61.00;99603.44;229444;1192;139578;-69
2021/10/05 21:53:40;;;;;;;;;;;;;;;16.13;61.06;99603.71;229713;1192;139129;-68
2021/10/05 21:58:45;;;;;;;9.70;7.70;;;;;;;16.03;61.25;99604.33;230666;1192;125972;-67
2021/10/05 22:03:49;;;;;;;14.00;8.50;;;;;;;15.95;61.37;99607.03;228878;1192;138482;-68
2021/10/05 22:08:53;;;;;;;10.00;9.00;;;;;;;15.86;61.52;99605.63;230222;1192;139420;-69
2021/10/05 22:13:57;;;;;;;10.60;7.70;;;;;;;15.84;61.67;99610.56;229318;1192;139941;-69
2021/10/05 22:19:03;;;;;;;16.60;7.80;;;;;;;15.80;61.76;99607.13;228903;1192;139548;-69
2021/10/05 22:24:08;;;;;;;9.40;8.00;;;;;;;15.71;61.80;99610.10;230827;1193;138935;-69
2021/10/05 22:29:13;;;;;;;11.60;8.60;;;;;;;15.63;62.11;99608.39;231204;1191;139316;-68
2021/10/05 22:34:19;;;;;;;11.80;8.30;;;;;;;15.55;62.27;99607.80;231014;1191;139144;-69
2021/10/05 22:39:23;;;;;;;14.90;8.30;;;;;;;15.51;62.31;99609.67;231231;1192;140546;-67
2021/10/05 22:44:28;;;;;;;13.20;9.80;;;;;;;15.53;62.48;99613.43;231286;1191;139877;-68
2021/10/05 22:49:33;;;;;;;9.20;7.90;;;;;;;15.51;62.51;99618.27;230541;1192;141002;-69
2021/10/05 22:54:38;;;;;;;10.40;8.30;;;;;;;15.45;62.74;99618.11;229420;1192;140635;-67
2021/10/05 22:59:42;;;;;;;13.30;9.20;;;;;;;15.38;62.84;99620.84;229334;1192;140482;-67
2021/10/05 23:04:47;;;;;;;17.30;9.40;;;;;;;15.29;63.18;99625.41;229874;1192;142605;-68
2021/10/05 23:09:52;;;;;;;11.00;8.10;;;;;;;15.22;63.22;99623.91;229750;1192;140602;-68